createdAt,value
2023-07-04T00:01:38.764Z,18.14
2023-07-04T00:04:09.747Z,18.01
2023-07-04T00:06:39.597Z,17.90
2023-07-04T00:09:08.890Z,17.89
2023-07-04T00:11:38.263Z,17.86
2023-07-04T00:14:09.239Z,17.85
2023-07-04T00:16:38.111Z,17.81
2023-07-04T00:19:09.186Z,17.75
2023-07-04T00:21:40.465Z,17.66
2023-07-04T00:24:08.664Z,17.71
2023-07-04T00:26:37.503Z,17.65
2023-07-04T00:29:06.040Z,17.72
2023-07-04T00:31:34.259Z,17.61
2023-07-04T00:34:06.097Z,17.51
2023-07-04T00:36:36.299Z,17.58
2023-07-04T00:39:05.494Z,17.58
2023-07-04T00:41:34.635Z,17.52
2023-07-04T00:44:10.381Z,17.45
2023-07-04T00:46:42.046Z,17.56
2023-07-04T00:49:19.356Z,17.52
2023-07-04T00:52:05.517Z,17.46
2023-07-04T00:54:38.498Z,17.41
2023-07-04T00:57:08.298Z,17.37
2023-07-04T00:59:39.714Z,17.38
2023-07-04T01:02:09.481Z,17.28
2023-07-04T01:04:41.513Z,17.17
2023-07-04T01:07:16.414Z,17.12
2023-07-04T01:09:49.033Z,17.08
2023-07-04T01:12:21.259Z,17.29
2023-07-04T01:14:50.747Z,17.15
2023-07-04T01:17:19.746Z,17.07
2023-07-04T01:19:48.569Z,17.04
2023-07-04T01:22:22.770Z,17.10
2023-07-04T01:24:56.591Z,16.98
2023-07-04T01:27:28.070Z,16.94
2023-07-04T01:30:11.379Z,16.93
2023-07-04T01:32:42.159Z,17.04
2023-07-04T01:35:13.897Z,17.00
2023-07-04T01:37:42.425Z,17.04
2023-07-04T01:40:11.612Z,16.94
2023-07-04T01:42:41.875Z,16.94
2023-07-04T01:45:11.239Z,16.86
2023-07-04T01:47:40.629Z,16.93
2023-07-04T01:50:10.066Z,16.95
2023-07-04T01:52:40.190Z,16.93
2023-07-04T01:55:09.923Z,16.90
2023-07-04T01:57:39.233Z,16.97
2023-07-04T02:00:14.680Z,16.91
2023-07-04T02:02:58.418Z,16.97
2023-07-04T02:05:27.338Z,16.90
2023-07-04T02:07:55.683Z,16.85
2023-07-04T02:10:23.637Z,16.94
2023-07-04T02:12:51.857Z,16.89
2023-07-04T02:15:21.504Z,16.83
2023-07-04T02:17:49.965Z,16.80
2023-07-04T02:20:19.053Z,16.76
2023-07-04T02:22:47.156Z,16.69
2023-07-04T02:25:15.666Z,16.58
2023-07-04T02:27:45.546Z,16.58
2023-07-04T02:30:14.195Z,16.56
2023-07-04T02:32:43.906Z,16.50
2023-07-04T02:35:12.294Z,16.56
2023-07-04T02:37:43.431Z,16.48
2023-07-04T02:40:12.189Z,16.35
2023-07-04T02:42:40.649Z,16.13
2023-07-04T02:45:10.786Z,16.04
2023-07-04T02:47:40.682Z,16.03
2023-07-04T02:50:14.902Z,16.01
2023-07-04T02:52:43.970Z,16.03
2023-07-04T02:55:14.006Z,16.07
2023-07-04T02:57:42.335Z,16.08
2023-07-04T03:00:11.082Z,16.11
2023-07-04T03:02:40.245Z,16.16
2023-07-04T03:05:09.588Z,16.15
2023-07-04T03:07:41.194Z,16.03
2023-07-04T03:10:12.039Z,16.00
2023-07-04T03:12:40.643Z,16.02
2023-07-04T03:15:09.449Z,16.04
2023-07-04T03:17:42.998Z,16.08
2023-07-04T03:20:16.148Z,16.07
2023-07-04T03:22:47.902Z,16.06
2023-07-04T03:25:17.375Z,16.08
2023-07-04T03:27:49.560Z,15.95
2023-07-04T03:30:22.074Z,15.90
2023-07-04T03:32:54.348Z,15.91
2023-07-04T03:35:24.133Z,15.83
2023-07-04T03:37:53.558Z,15.85
2023-07-04T03:40:22.096Z,15.86
2023-07-04T03:42:50.456Z,15.92
2023-07-04T03:45:19.859Z,15.89
2023-07-04T03:47:48.258Z,15.82
2023-07-04T03:50:16.554Z,15.88
2023-07-04T03:52:45.524Z,15.94
2023-07-04T03:55:16.274Z,15.99
2023-07-04T03:57:44.350Z,15.99
2023-07-04T04:00:14.161Z,16.06
2023-07-04T04:02:58.490Z,15.98
2023-07-04T04:05:28.357Z,15.88
2023-07-04T04:07:57.282Z,16.04
2023-07-04T04:10:26.815Z,16.17
2023-07-04T04:12:54.926Z,16.35
2023-07-04T04:15:23.398Z,16.59
2023-07-04T04:17:52.624Z,16.73
2023-07-04T04:20:20.634Z,16.68
2023-07-04T04:22:48.944Z,16.76
2023-07-04T04:25:17.893Z,16.93
2023-07-04T04:27:49.225Z,17.13
2023-07-04T04:30:18.078Z,17.27
2023-07-04T04:32:48.009Z,17.43
2023-07-04T04:35:16.604Z,17.66
2023-07-04T04:37:44.886Z,17.80
2023-07-04T04:40:13.398Z,17.96
2023-07-04T04:42:45.083Z,17.99
2023-07-04T04:45:15.768Z,18.19
2023-07-04T04:47:54.367Z,18.18
2023-07-04T04:50:23.494Z,18.52
2023-07-04T04:52:51.967Z,18.79
2023-07-04T04:55:20.227Z,19.08
2023-07-04T04:57:49.454Z,19.24
2023-07-04T05:00:19.848Z,19.15
2023-07-04T05:02:48.101Z,19.26
2023-07-04T05:05:16.547Z,19.36
2023-07-04T05:07:44.788Z,19.38
2023-07-04T05:10:13.156Z,19.49
2023-07-04T05:12:41.598Z,19.46
2023-07-04T05:15:10.319Z,19.40
2023-07-04T05:17:40.558Z,19.50
2023-07-04T05:20:10.304Z,20.11
2023-07-04T05:22:38.910Z,19.87
2023-07-04T05:25:07.814Z,19.93
2023-07-04T05:27:35.672Z,20.15
2023-07-04T05:30:04.692Z,20.35
2023-07-04T05:32:32.762Z,20.63
2023-07-04T05:35:02.604Z,20.94
2023-07-04T05:37:32.913Z,21.22
2023-07-04T05:40:01.318Z,21.13
2023-07-04T05:42:30.594Z,21.21
2023-07-04T05:44:59.228Z,21.43
2023-07-04T05:47:27.607Z,21.26
2023-07-04T05:49:56.352Z,21.45
2023-07-04T05:52:26.381Z,21.50
2023-07-04T05:54:55.014Z,21.63
2023-07-04T05:57:23.584Z,21.47
2023-07-04T05:59:52.947Z,21.70
2023-07-04T06:02:23.741Z,21.72
2023-07-04T06:04:53.665Z,21.80
2023-07-04T06:07:22.214Z,22.18
2023-07-04T06:09:52.126Z,22.34
2023-07-04T06:12:21.120Z,22.16
2023-07-04T06:14:49.678Z,22.30
2023-07-04T06:17:18.109Z,22.16
2023-07-04T06:19:50.275Z,22.28
2023-07-04T06:22:18.557Z,22.09
2023-07-04T06:24:50.129Z,22.08
2023-07-04T06:27:19.694Z,22.43
2023-07-04T06:29:49.057Z,22.64
2023-07-04T06:32:17.314Z,23.16
2023-07-04T06:34:45.712Z,23.49
2023-07-04T06:37:13.707Z,23.66
2023-07-04T06:39:41.737Z,22.62
2023-07-04T06:42:09.965Z,21.79
2023-07-04T06:44:47.104Z,21.07
2023-07-04T06:47:15.685Z,21.16
2023-07-04T06:49:44.100Z,20.60
2023-07-04T06:52:12.409Z,22.18
2023-07-04T06:54:40.514Z,23.04
2023-07-04T06:57:08.640Z,23.64
2023-07-04T06:59:37.524Z,24.18
2023-07-04T07:02:10.240Z,24.71
2023-07-04T07:04:41.117Z,25.05
2023-07-04T07:07:10.857Z,25.06
2023-07-04T07:09:41.411Z,24.29
2023-07-04T07:12:11.234Z,24.62
2023-07-04T07:14:40.118Z,25.03
2023-07-04T07:17:10.618Z,23.54
2023-07-04T07:19:40.611Z,23.78
2023-07-04T07:22:10.336Z,24.51
2023-07-04T07:24:38.884Z,24.16
2023-07-04T07:27:08.916Z,23.46
2023-07-04T07:29:37.301Z,23.92
2023-07-04T07:32:08.119Z,25.56
2023-07-04T07:34:39.109Z,26.23
2023-07-04T07:37:08.875Z,26.61
2023-07-04T07:39:39.266Z,27.09
2023-07-04T07:42:07.540Z,27.04
2023-07-04T07:44:36.324Z,27.27
2023-07-04T07:47:06.106Z,27.04
2023-07-04T07:49:34.809Z,25.96
2023-07-04T07:52:04.504Z,26.61
2023-07-04T07:54:33.068Z,26.01
2023-07-04T07:57:03.797Z,26.66
2023-07-04T07:59:32.154Z,26.87
2023-07-04T08:02:00.974Z,25.74
2023-07-04T08:04:29.319Z,24.57
2023-07-04T08:06:58.738Z,24.11
2023-07-04T08:09:29.979Z,23.32
2023-07-04T08:11:58.886Z,26.00
2023-07-04T08:14:28.603Z,26.98
2023-07-04T08:16:57.505Z,27.43
2023-07-04T08:19:26.654Z,26.48
2023-07-04T08:21:55.913Z,27.64
2023-07-04T08:24:27.295Z,27.23
2023-07-04T08:27:02.891Z,28.20
2023-07-04T08:29:33.820Z,26.03
2023-07-04T08:32:02.342Z,26.36
2023-07-04T08:34:30.292Z,28.18
2023-07-04T08:36:58.795Z,28.60
2023-07-04T08:39:27.734Z,28.09
2023-07-04T08:42:00.672Z,29.24
2023-07-04T08:44:33.439Z,29.64
2023-07-04T08:47:02.490Z,29.95
2023-07-04T08:49:35.484Z,30.57
2023-07-04T08:52:08.120Z,29.77
2023-07-04T08:54:38.169Z,30.79
2023-07-04T08:57:13.981Z,30.63
2023-07-04T08:59:44.404Z,24.29
2023-07-04T09:02:34.627Z,24.59
2023-07-04T09:05:09.450Z,25.87
2023-07-04T09:07:42.512Z,26.90
2023-07-04T09:10:20.140Z,28.82
2023-07-04T09:12:50.295Z,29.18
2023-07-04T09:15:22.873Z,29.94
2023-07-04T09:18:08.425Z,29.04
2023-07-04T09:20:48.825Z,28.81
2023-07-04T09:23:18.599Z,29.47
2023-07-04T09:25:48.254Z,27.63
2023-07-04T09:28:18.358Z,24.48
2023-07-04T09:30:51.034Z,26.16
2023-07-04T09:33:22.604Z,27.69
2023-07-04T09:35:52.261Z,26.77
2023-07-04T09:38:21.317Z,26.97
2023-07-04T09:40:52.801Z,26.20
2023-07-04T09:43:31.369Z,25.27
2023-07-04T09:46:13.838Z,24.23
2023-07-04T09:48:43.480Z,24.90
2023-07-04T09:51:20.805Z,25.86
2023-07-04T09:53:49.234Z,27.89
2023-07-04T09:56:27.291Z,29.17
2023-07-04T09:59:14.270Z,29.14
2023-07-04T10:01:43.929Z,25.93
2023-07-04T10:04:13.850Z,25.18
2023-07-04T10:06:44.723Z,24.65
2023-07-04T10:09:19.679Z,26.54
2023-07-04T10:11:49.468Z,27.68
2023-07-04T10:14:19.672Z,29.00
2023-07-04T10:16:50.114Z,29.84
2023-07-04T10:19:20.115Z,29.62
2023-07-04T10:21:52.333Z,29.83
2023-07-04T10:24:23.962Z,30.24
2023-07-04T10:26:56.576Z,30.21
2023-07-04T10:29:35.584Z,29.08
2023-07-04T10:32:06.904Z,29.94
2023-07-04T10:34:38.707Z,30.88
2023-07-04T10:37:08.225Z,30.93
2023-07-04T10:39:39.600Z,31.26
2023-07-04T10:42:13.510Z,31.58
2023-07-04T10:44:44.863Z,31.90
2023-07-04T10:47:14.752Z,32.33
2023-07-04T10:49:46.098Z,32.09
2023-07-04T10:52:18.035Z,30.40
2023-07-04T10:54:47.060Z,29.78
2023-07-04T10:57:26.694Z,30.80
2023-07-04T11:00:05.301Z,30.40
2023-07-04T11:02:38.371Z,30.26
2023-07-04T11:05:12.224Z,31.43
2023-07-04T11:07:42.467Z,31.56
2023-07-04T11:10:13.774Z,32.07
2023-07-04T11:12:44.317Z,29.48
2023-07-04T11:15:25.107Z,29.65
2023-07-04T11:17:55.676Z,29.15
2023-07-04T11:20:30.354Z,30.04
2023-07-04T11:23:04.785Z,31.44
2023-07-04T11:25:36.655Z,31.73
2023-07-04T11:28:15.902Z,34.17
2023-07-04T11:30:49.083Z,35.71
2023-07-04T11:33:35.886Z,37.71
2023-07-04T11:36:04.337Z,40.94
2023-07-04T11:38:33.769Z,41.75
2023-07-04T11:41:03.776Z,40.90
2023-07-04T11:43:34.949Z,37.16
2023-07-04T11:46:05.703Z,37.80
2023-07-04T11:48:36.193Z,36.49
2023-07-04T11:51:06.867Z,32.88
2023-07-04T11:53:40.442Z,29.79
2023-07-04T11:56:17.125Z,29.19
2023-07-04T11:58:46.710Z,29.92
2023-07-04T12:01:18.199Z,32.13
2023-07-04T12:03:53.692Z,35.88
2023-07-04T12:06:50.966Z,38.03
2023-07-04T12:09:26.321Z,32.85
2023-07-04T12:11:57.146Z,33.63
2023-07-04T12:14:28.514Z,33.30
2023-07-04T12:17:02.086Z,35.96
2023-07-04T12:19:30.876Z,40.54
2023-07-04T12:21:59.549Z,37.18
2023-07-04T12:24:29.173Z,38.28
2023-07-04T12:26:58.583Z,39.17
2023-07-04T12:30:02.260Z,34.40
2023-07-04T12:32:19.892Z,36.13
2023-07-04T12:37:28.773Z,38.59
2023-07-04T12:40:02.493Z,39.55
2023-07-04T12:42:32.327Z,39.33
2023-07-04T12:45:08.714Z,40.55
2023-07-04T12:47:39.732Z,37.31
2023-07-04T12:50:09.145Z,33.14
2023-07-04T12:52:39.774Z,35.84
2023-07-04T12:55:14.967Z,40.67
2023-07-04T12:57:44.014Z,38.24
2023-07-04T13:00:14.095Z,37.65
2023-07-04T13:02:48.960Z,38.89
2023-07-04T13:05:18.031Z,38.27
2023-07-04T13:07:47.913Z,35.97
2023-07-04T13:10:21.738Z,34.06
2023-07-04T13:12:50.966Z,32.60
2023-07-04T13:15:26.127Z,32.58
2023-07-04T13:18:00.896Z,34.70
2023-07-04T13:20:29.922Z,38.12
2023-07-04T13:24:57.998Z,36.49
2023-07-04T13:25:49.599Z,30.90
2023-07-04T13:33:45.047Z,37.94
2023-07-04T13:36:14.587Z,38.06
2023-07-04T13:41:16.077Z,38.62
2023-07-04T13:46:16.224Z,38.03
2023-07-04T13:48:46.204Z,33.18
2023-07-04T13:51:14.920Z,36.89
2023-07-04T13:53:44.952Z,36.25
2023-07-04T13:56:13.036Z,38.72
2023-07-04T13:58:41.683Z,40.95
2023-07-04T14:06:15.795Z,41.55
2023-07-04T14:08:46.550Z,42.65
2023-07-04T14:11:15.968Z,39.67
2023-07-04T14:13:47.141Z,39.65
2023-07-04T14:21:25.501Z,36.87
2023-07-04T14:23:54.369Z,39.76
2023-07-04T14:26:24.626Z,41.06
2023-07-04T14:28:53.689Z,40.78
2023-07-04T14:31:22.462Z,39.14
2023-07-04T14:33:51.924Z,35.84
2023-07-04T14:36:21.540Z,33.35
2023-07-04T14:38:50.216Z,36.23
2023-07-04T14:43:51.274Z,37.95
2023-07-04T14:46:19.543Z,36.85
2023-07-04T14:48:49.834Z,35.71
2023-07-04T14:51:18.820Z,34.38
2023-07-04T14:53:48.611Z,33.49
2023-07-04T14:56:17.885Z,33.93
2023-07-04T14:58:47.020Z,34.41
2023-07-04T15:01:16.454Z,36.38
2023-07-04T15:03:44.842Z,37.92
2023-07-04T15:06:12.912Z,37.25
2023-07-04T15:08:41.861Z,36.69
2023-07-04T15:11:11.276Z,35.75
2023-07-04T15:13:39.688Z,33.44
2023-07-04T15:16:10.663Z,32.25
2023-07-04T15:18:39.838Z,34.34
2023-07-04T15:21:08.826Z,34.83
2023-07-04T15:23:36.917Z,35.85
2023-07-04T15:26:20.024Z,35.85
2023-07-04T15:28:57.495Z,36.97
2023-07-04T15:31:27.047Z,34.87
2023-07-04T15:33:58.783Z,35.97
2023-07-04T15:36:27.457Z,34.62
2023-07-04T15:38:55.833Z,35.22
2023-07-04T15:41:24.709Z,37.18
2023-07-04T15:43:52.352Z,34.89
2023-07-04T15:46:23.875Z,35.52
2023-07-04T15:48:53.236Z,34.17
2023-07-04T15:51:23.206Z,36.05
2023-07-04T15:53:51.360Z,36.50
2023-07-04T15:56:24.455Z,38.31
2023-07-04T15:58:52.757Z,36.64
2023-07-04T16:01:22.616Z,37.91
2023-07-04T16:03:53.877Z,38.82
2023-07-04T16:06:23.682Z,38.49
2023-07-04T16:08:52.911Z,38.70
2023-07-04T16:11:21.013Z,39.22
2023-07-04T16:13:51.652Z,39.03
2023-07-04T16:16:20.075Z,38.97
2023-07-04T16:18:49.941Z,35.83
2023-07-04T16:21:18.109Z,31.32
2023-07-04T16:23:47.322Z,30.37
2023-07-04T16:26:18.327Z,31.86
2023-07-04T16:28:46.609Z,33.06
2023-07-04T16:31:14.739Z,34.44
2023-07-04T16:33:42.784Z,35.71
2023-07-04T16:36:12.453Z,34.75
2023-07-04T16:38:40.336Z,34.58
2023-07-04T16:41:13.007Z,33.55
2023-07-04T16:43:41.549Z,32.97
2023-07-04T16:46:10.369Z,31.83
2023-07-04T16:48:38.314Z,32.30
2023-07-04T16:51:06.697Z,33.80
2023-07-04T16:53:36.164Z,34.16
2023-07-04T16:56:04.475Z,35.22
2023-07-04T16:58:33.292Z,34.50
2023-07-04T17:01:02.053Z,32.83
2023-07-04T17:03:30.711Z,33.28
2023-07-04T17:06:03.064Z,32.97
2023-07-04T17:08:34.718Z,33.34
2023-07-04T17:11:06.315Z,33.21
2023-07-04T17:13:39.141Z,33.06
2023-07-04T17:16:08.207Z,33.51
2023-07-04T17:18:42.947Z,33.99
2023-07-04T17:21:11.536Z,34.10
2023-07-04T17:23:46.855Z,34.24
2023-07-04T17:26:15.970Z,34.20
2023-07-04T17:28:44.838Z,34.29
2023-07-04T17:31:13.811Z,34.45
2023-07-04T17:33:43.259Z,33.43
2023-07-04T17:36:13.198Z,33.44
2023-07-04T17:38:41.736Z,32.48
2023-07-04T17:41:11.478Z,32.88
2023-07-04T17:43:42.772Z,32.59
2023-07-04T17:46:12.472Z,32.82
2023-07-04T17:48:40.878Z,32.92
2023-07-04T17:51:10.204Z,33.32
2023-07-04T17:53:38.482Z,33.09
2023-07-04T17:56:09.878Z,33.21
2023-07-04T17:58:38.447Z,32.52
2023-07-04T18:01:13.172Z,32.36
2023-07-04T18:03:46.056Z,31.67
2023-07-04T18:06:15.458Z,31.56
2023-07-04T18:08:44.149Z,30.76
2023-07-04T18:11:16.113Z,28.99
2023-07-04T18:13:44.982Z,28.61
2023-07-04T18:16:14.173Z,28.20
2023-07-04T18:18:42.765Z,28.19
2023-07-04T18:21:18.516Z,28.27
2023-07-04T18:23:47.509Z,28.12
2023-07-04T18:26:15.817Z,28.32
2023-07-04T18:28:44.397Z,28.79
2023-07-04T18:31:13.926Z,29.07
2023-07-04T18:33:48.117Z,29.14
2023-07-04T18:36:17.651Z,29.05
2023-07-04T18:38:45.602Z,29.06
2023-07-04T18:41:14.424Z,29.08
2023-07-04T18:43:42.794Z,29.12
2023-07-04T18:46:10.818Z,29.05
2023-07-04T18:48:38.956Z,28.94
2023-07-04T18:51:12.996Z,28.83
2023-07-04T18:53:41.364Z,28.71
2023-07-04T18:56:09.830Z,28.61
2023-07-04T18:58:38.735Z,28.54
2023-07-04T19:01:14.362Z,28.35
2023-07-04T19:03:44.113Z,28.22
2023-07-04T19:06:13.979Z,28.03
2023-07-04T19:08:43.448Z,27.72
2023-07-04T19:11:11.560Z,27.54
2023-07-04T19:13:40.445Z,27.45
2023-07-04T19:16:09.167Z,27.38
2023-07-04T19:18:40.936Z,27.26
2023-07-04T19:21:08.940Z,27.20
2023-07-04T19:23:38.180Z,27.18
2023-07-04T19:26:12.214Z,27.12
2023-07-04T19:28:43.744Z,27.01
2023-07-04T19:31:16.909Z,26.95
2023-07-04T19:33:46.463Z,26.87
2023-07-04T19:36:18.130Z,26.88
2023-07-04T19:38:50.444Z,26.84
2023-07-04T19:41:19.073Z,26.75
2023-07-04T19:43:46.900Z,26.72
2023-07-04T19:46:18.594Z,26.62
2023-07-04T19:48:46.468Z,26.54
2023-07-04T19:51:15.667Z,26.47
2023-07-04T19:53:44.345Z,26.33
2023-07-04T19:56:17.774Z,26.11
2023-07-04T19:58:45.631Z,25.83
2023-07-04T20:01:16.132Z,25.49
2023-07-04T20:03:44.397Z,25.18
2023-07-04T20:06:14.730Z,25.20
2023-07-04T20:08:43.394Z,25.29
2023-07-04T20:11:11.704Z,25.41
2023-07-04T20:13:41.638Z,25.42
2023-07-04T20:16:11.049Z,25.26
2023-07-04T20:18:39.627Z,25.25
2023-07-04T20:21:07.726Z,25.15
2023-07-04T20:23:37.191Z,25.01
2023-07-04T20:26:05.678Z,24.88
2023-07-04T20:28:36.922Z,24.89
2023-07-04T20:31:06.678Z,24.71
2023-07-04T20:33:35.835Z,24.75
2023-07-04T20:36:04.222Z,24.69
2023-07-04T20:38:32.197Z,24.57
2023-07-04T20:41:03.534Z,24.49
2023-07-04T20:43:32.570Z,24.56
2023-07-04T20:46:00.760Z,24.56
2023-07-04T20:48:31.167Z,24.58
2023-07-04T20:51:04.829Z,24.53
2023-07-04T20:53:33.357Z,24.44
2023-07-04T20:56:03.537Z,24.27
2023-07-04T20:58:32.342Z,24.08
2023-07-04T21:01:00.518Z,23.86
2023-07-04T21:03:30.849Z,23.86
2023-07-04T21:06:03.446Z,23.81
2023-07-04T21:08:31.696Z,23.58
2023-07-04T21:11:07.310Z,23.62
2023-07-04T21:13:40.028Z,23.45
2023-07-04T21:16:11.018Z,22.93
2023-07-04T21:18:42.903Z,22.43
2023-07-04T21:21:11.844Z,22.15
2023-07-04T21:23:39.886Z,22.27
2023-07-04T21:26:08.793Z,22.57
2023-07-04T21:28:40.607Z,22.77
2023-07-04T21:31:09.353Z,22.94
2023-07-04T21:33:39.992Z,22.91
2023-07-04T21:36:12.626Z,22.76
2023-07-04T21:38:41.225Z,22.56
2023-07-04T21:41:11.449Z,22.57
2023-07-04T21:43:39.317Z,22.58
2023-07-04T21:46:09.002Z,22.50
2023-07-04T21:48:37.974Z,22.55
2023-07-04T21:51:07.725Z,22.44
2023-07-04T21:53:37.031Z,22.58
2023-07-04T21:56:06.682Z,22.51
2023-07-04T21:58:37.014Z,22.52
2023-07-04T22:01:07.850Z,22.36
2023-07-04T22:03:37.118Z,22.29
2023-07-04T22:06:06.339Z,22.22
2023-07-04T22:08:35.656Z,21.97
2023-07-04T22:11:05.904Z,21.83
2023-07-04T22:13:35.502Z,21.75
2023-07-04T22:16:08.653Z,21.65
2023-07-04T22:18:38.705Z,21.51
2023-07-04T22:21:08.854Z,21.51
2023-07-04T22:23:38.022Z,21.48
2023-07-04T22:26:08.018Z,21.29
2023-07-04T22:28:39.466Z,21.32
2023-07-04T22:31:08.718Z,21.24
2023-07-04T22:33:39.844Z,21.21
2023-07-04T22:36:08.780Z,21.08
2023-07-04T22:38:36.911Z,21.09
2023-07-04T22:41:07.551Z,21.04
2023-07-04T22:43:35.768Z,21.05
2023-07-04T22:46:04.986Z,21.05
2023-07-04T22:48:33.235Z,20.96
2023-07-04T22:51:03.537Z,20.92
2023-07-04T22:53:31.739Z,20.98
2023-07-04T22:56:05.816Z,20.98
2023-07-04T22:58:36.282Z,21.04
2023-07-04T23:01:14.324Z,21.06
2023-07-04T23:03:43.590Z,21.07
2023-07-04T23:06:12.952Z,21.17
2023-07-04T23:08:41.142Z,21.14
2023-07-04T23:11:09.458Z,21.30
2023-07-04T23:13:39.203Z,21.42
2023-07-04T23:16:10.230Z,21.52
2023-07-04T23:18:38.781Z,21.59
2023-07-04T23:21:06.741Z,21.68
2023-07-04T23:23:34.952Z,21.81
2023-07-04T23:26:08.925Z,21.84
2023-07-04T23:28:38.308Z,21.76
2023-07-04T23:31:07.969Z,21.76
2023-07-04T23:33:36.735Z,21.87
2023-07-04T23:36:05.932Z,21.67
2023-07-04T23:38:34.101Z,21.75
2023-07-04T23:41:02.053Z,21.77
2023-07-04T23:43:30.531Z,21.55
2023-07-04T23:46:01.336Z,21.52
2023-07-04T23:48:30.718Z,21.61
2023-07-04T23:50:59.348Z,21.73
2023-07-04T23:53:27.184Z,21.70
2023-07-04T23:55:55.783Z,21.74
2023-07-04T23:58:23.996Z,21.86
